createdAt,value
2022-10-03T00:03:31.612Z,100305.94
2022-10-03T00:08:04.080Z,100317.19
2022-10-03T00:12:49.303Z,100316.81
2022-10-03T00:17:07.115Z,100317.84
2022-10-03T00:21:49.641Z,100321.97
2022-10-03T00:26:28.737Z,100327.00
2022-10-03T00:31:02.172Z,100333.59
2022-10-03T00:35:44.539Z,100350.06
2022-10-03T00:40:00.026Z,100359.59
2022-10-03T00:44:43.673Z,100344.78
2022-10-03T00:49:15.078Z,100368.94
2022-10-03T00:53:50.784Z,100355.75
2022-10-03T00:58:39.226Z,100367.81
2022-10-03T01:03:01.408Z,100365.56
2022-10-03T01:07:18.698Z,100370.47
2022-10-03T01:11:38.895Z,100358.03
2022-10-03T01:16:36.294Z,100348.41
2022-10-03T01:21:05.961Z,100348.34
2022-10-03T01:25:13.176Z,100344.06
2022-10-03T01:29:39.363Z,100346.41
2022-10-03T01:33:49.038Z,100350.63
2022-10-03T01:38:34.261Z,100357.34
2022-10-03T01:42:51.128Z,100345.28
2022-10-03T01:46:59.055Z,100346.31
2022-10-03T01:51:23.182Z,100350.03
2022-10-03T01:56:00.436Z,100342.00
2022-10-03T02:00:13.786Z,100348.94
2022-10-03T02:04:27.402Z,100352.13
2022-10-03T02:08:47.453Z,100356.97
2022-10-03T02:13:30.408Z,100376.75
2022-10-03T02:18:04.422Z,100369.81
2022-10-03T02:22:48.418Z,100372.84
2022-10-03T02:27:36.435Z,100381.16
2022-10-03T02:32:06.962Z,100402.78
2022-10-03T02:36:53.243Z,100399.59
2022-10-03T02:41:25.980Z,100400.00
2022-10-03T02:46:31.395Z,100409.09
2022-10-03T02:50:42.668Z,100401.09
2022-10-03T02:55:10.540Z,100395.31
2022-10-03T03:00:09.411Z,100416.94
2022-10-03T03:04:20.418Z,100409.53
2022-10-03T03:08:43.769Z,100408.44
2022-10-03T03:13:39.204Z,100407.56
2022-10-03T03:18:00.197Z,100427.97
2022-10-03T03:22:08.593Z,100426.66
2022-10-03T03:26:42.039Z,100416.09
2022-10-03T03:31:15.357Z,100427.41
2022-10-03T03:35:42.459Z,100438.56
2022-10-03T03:40:35.950Z,100449.09
2022-10-03T03:45:07.733Z,100431.41
2022-10-03T03:49:31.918Z,100440.22
2022-10-03T03:54:26.235Z,100430.19
2022-10-03T03:59:22.181Z,100439.44
2022-10-03T04:03:43.315Z,100438.03
2022-10-03T04:08:11.244Z,100437.16
2022-10-03T04:12:36.454Z,100446.28
2022-10-03T04:17:56.758Z,100438.56
2022-10-03T04:22:15.421Z,100445.13
2022-10-03T04:26:32.656Z,100442.50
2022-10-03T04:31:24.229Z,100451.63
2022-10-03T04:36:09.956Z,100453.69
2022-10-03T04:40:43.823Z,100450.03
2022-10-03T04:45:18.011Z,100460.44
2022-10-03T04:50:02.422Z,100461.69
2022-10-03T04:54:22.257Z,100461.69
2022-10-03T04:58:40.686Z,100469.41
2022-10-03T05:03:38.354Z,100484.66
2022-10-03T05:08:20.390Z,100481.88
2022-10-03T05:12:46.792Z,100478.03
2022-10-03T05:17:07.411Z,100491.63
2022-10-03T05:21:36.681Z,100496.13
2022-10-03T05:26:45.578Z,100504.22
2022-10-03T05:31:31.007Z,100497.97
2022-10-03T05:36:23.781Z,100503.59
2022-10-03T05:41:23.842Z,100505.34
2022-10-03T05:47:55.925Z,100521.75
2022-10-03T05:51:56.080Z,100524.75
2022-10-03T05:56:51.190Z,100529.34
2022-10-03T06:01:05.464Z,100527.50
2022-10-03T06:11:32.435Z,100539.63
2022-10-03T06:16:54.694Z,100545.50
2022-10-03T06:27:04.510Z,100542.97
2022-10-03T06:31:50.590Z,100543.16
2022-10-03T06:36:19.122Z,100543.56
2022-10-03T06:41:13.487Z,100550.81
2022-10-03T06:45:39.874Z,100557.50
2022-10-03T06:50:13.193Z,100553.16
2022-10-03T06:54:46.143Z,100564.84
2022-10-03T06:59:15.708Z,100559.91
2022-10-03T07:03:46.433Z,100556.25
2022-10-03T07:08:06.167Z,100562.22
2022-10-03T07:13:10.536Z,100561.13
2022-10-03T07:17:39.083Z,100550.22
2022-10-03T07:22:22.277Z,100538.28
2022-10-03T07:26:42.932Z,100554.44
2022-10-03T07:31:48.542Z,100580.44
2022-10-03T07:36:26.977Z,100569.22
2022-10-03T07:40:50.087Z,100583.16
2022-10-03T07:45:00.720Z,100595.28
2022-10-03T07:49:32.526Z,100586.22
2022-10-03T07:59:35.806Z,100579.06
2022-10-03T08:04:14.514Z,100590.47
2022-10-03T08:08:41.039Z,100584.19
2022-10-03T08:13:21.037Z,100581.94
2022-10-03T08:17:41.389Z,100591.41
2022-10-03T08:22:11.848Z,100594.75
2022-10-03T08:26:39.705Z,100585.94
2022-10-03T08:31:42.585Z,100585.63
2022-10-03T08:36:45.767Z,100579.50
2022-10-03T08:41:14.462Z,100601.34
2022-10-03T08:45:51.797Z,100590.44
2022-10-03T08:50:05.928Z,100590.53
2022-10-03T08:54:28.873Z,100587.72
2022-10-03T08:59:02.267Z,100580.72
2022-10-03T09:03:55.342Z,100579.53
2022-10-03T09:08:38.791Z,100593.66
2022-10-03T09:13:14.033Z,100575.56
2022-10-03T09:17:49.327Z,100591.31
2022-10-03T09:22:07.183Z,100586.13
2022-10-03T09:26:47.992Z,100575.00
2022-10-03T09:31:35.496Z,100565.56
2022-10-03T09:36:25.546Z,100569.38
2022-10-03T09:41:23.796Z,100570.09
2022-10-03T09:45:53.757Z,100556.91
2022-10-03T09:50:39.234Z,100573.03
2022-10-03T09:55:01.940Z,100572.91
2022-10-03T09:59:52.598Z,100569.06
2022-10-03T10:04:57.844Z,100570.59
2022-10-03T10:09:34.085Z,100573.06
2022-10-03T10:14:28.385Z,100574.25
2022-10-03T10:19:17.313Z,100584.13
2022-10-03T10:23:49.299Z,100581.66
2022-10-03T10:28:17.941Z,100575.34
2022-10-03T10:33:11.424Z,100570.72
2022-10-03T10:38:33.497Z,100575.91
2022-10-03T10:43:23.800Z,100559.38
2022-10-03T10:47:58.029Z,100578.16
2022-10-03T10:52:31.893Z,100560.19
2022-10-03T10:57:12.068Z,100571.09
2022-10-03T11:02:15.020Z,100569.28
2022-10-03T11:07:11.977Z,100572.59
2022-10-03T11:12:44.180Z,100572.75
2022-10-03T11:17:18.855Z,100567.16
2022-10-03T11:22:07.482Z,100574.25
2022-10-03T11:26:48.101Z,100576.69
2022-10-03T11:31:13.853Z,100579.66
2022-10-03T11:36:20.130Z,100573.72
2022-10-03T11:40:33.609Z,100575.66
2022-10-03T11:44:46.322Z,100568.44
2022-10-03T11:48:54.079Z,100577.19
2022-10-03T11:53:12.481Z,100577.00
2022-10-03T11:57:37.117Z,100577.19
2022-10-03T12:02:20.962Z,100579.47
2022-10-03T12:07:10.677Z,100581.88
2022-10-03T12:11:27.155Z,100574.75
2022-10-03T12:15:56.668Z,100570.47
2022-10-03T12:20:20.349Z,100563.03
2022-10-03T12:24:26.780Z,100559.09
2022-10-03T12:28:37.017Z,100568.81
2022-10-03T12:32:59.164Z,100582.44
2022-10-03T12:37:11.883Z,100576.31
2022-10-03T12:41:36.025Z,100578.78
2022-10-03T12:45:49.836Z,100584.34
2022-10-03T12:50:27.827Z,100565.69
2022-10-03T12:55:14.473Z,100575.81
2022-10-03T12:59:43.573Z,100576.19
2022-10-03T13:03:59.257Z,100578.84
2022-10-03T13:08:26.339Z,100577.19
2022-10-03T13:13:15.391Z,100587.41
2022-10-03T13:18:13.061Z,100575.06
2022-10-03T13:23:00.983Z,100576.31
2022-10-03T13:27:44.616Z,100572.16
2022-10-03T13:32:04.199Z,100556.13
2022-10-03T13:36:22.557Z,100569.47
2022-10-03T13:40:35.859Z,100557.13
2022-10-03T13:45:01.403Z,100550.47
2022-10-03T13:49:14.586Z,100567.84
2022-10-03T13:53:46.462Z,100549.75
2022-10-03T13:58:30.173Z,100553.19
2022-10-03T14:02:59.985Z,100564.13
2022-10-03T14:07:33.924Z,100551.47
2022-10-03T14:11:45.078Z,100554.28
2022-10-03T14:16:08.637Z,100561.88
2022-10-03T14:20:25.316Z,100569.78
2022-10-03T14:25:07.089Z,100574.72
2022-10-03T14:29:36.655Z,100581.66
2022-10-03T14:33:58.181Z,100556.75
2022-10-03T14:38:50.822Z,100545.03
2022-10-03T14:43:30.588Z,100549.19
2022-10-03T14:47:36.051Z,100557.88
2022-10-03T14:51:47.589Z,100555.53
2022-10-03T14:55:52.472Z,100559.69
2022-10-03T14:59:57.877Z,100559.88
2022-10-03T15:04:06.396Z,100551.66
2022-10-03T15:08:15.525Z,100562.84
2022-10-03T15:12:33.159Z,100558.56
2022-10-03T15:16:40.917Z,100557.94
2022-10-03T15:20:43.664Z,100558.75
2022-10-03T15:24:46.819Z,100571.09
2022-10-03T15:29:01.834Z,100561.16
2022-10-03T15:33:32.487Z,100562.06
2022-10-03T15:37:50.080Z,100549.00
2022-10-03T16:06:03.620Z,100536.28
2022-10-03T16:16:20.108Z,100546.31
2022-10-03T16:20:43.048Z,100540.38
2022-10-03T16:25:03.316Z,100538.09
2022-10-03T16:29:32.113Z,100542.38
2022-10-03T16:35:03.678Z,100545.59
2022-10-03T16:44:38.635Z,100560.25
2022-10-03T16:48:58.931Z,100549.16
2022-10-03T16:53:01.625Z,100560.41
2022-10-03T16:57:13.713Z,100561.34
2022-10-03T17:02:05.927Z,100566.78
2022-10-03T17:06:09.028Z,100564.63
2022-10-03T17:11:02.424Z,100569.28
2022-10-03T17:15:21.019Z,100560.41
2022-10-03T17:19:43.738Z,100566.28
2022-10-03T17:24:04.760Z,100570.28
2022-10-03T17:40:01.927Z,100567.56
2022-10-03T17:45:15.771Z,100580.75
2022-10-03T17:50:48.513Z,100580.75
2022-10-03T17:54:59.073Z,100573.19
2022-10-03T17:59:24.748Z,100578.69
2022-10-03T18:03:37.739Z,100587.06
2022-10-03T18:07:56.595Z,100596.28
2022-10-03T18:12:31.660Z,100596.69
2022-10-03T18:17:04.917Z,100588.13
2022-10-03T18:21:19.191Z,100597.56
2022-10-03T18:26:19.529Z,100601.84
2022-10-03T18:30:58.373Z,100607.72
2022-10-03T18:35:24.779Z,100606.28
2022-10-03T18:39:32.213Z,100609.41
2022-10-03T18:43:48.563Z,100609.13
2022-10-03T18:48:16.326Z,100616.94
2022-10-03T18:52:41.275Z,100621.47
2022-10-03T18:56:43.765Z,100604.50
2022-10-03T19:01:07.049Z,100600.81
2022-10-03T19:05:24.021Z,100600.91
2022-10-03T19:10:03.453Z,100603.34
2022-10-03T19:14:09.662Z,100606.56
2022-10-03T19:19:01.917Z,100606.44
2022-10-03T19:23:22.558Z,100607.50
2022-10-03T19:27:52.468Z,100606.06
2022-10-03T19:32:03.470Z,100597.69
2022-10-03T19:36:07.869Z,100592.31
2022-10-03T19:40:44.158Z,100608.34
2022-10-03T19:44:47.642Z,100602.94
2022-10-03T19:49:39.280Z,100607.06
2022-10-03T19:53:42.701Z,100599.97
2022-10-03T19:57:54.203Z,100606.16
2022-10-03T20:01:56.150Z,100587.78
2022-10-03T20:06:09.596Z,100593.38
2022-10-03T20:10:39.591Z,100607.72
2022-10-03T20:14:44.705Z,100590.91
2022-10-03T20:18:49.659Z,100599.03
2022-10-03T20:22:53.653Z,100599.56
2022-10-03T20:27:18.975Z,100609.75
2022-10-03T20:31:25.724Z,100601.88
2022-10-03T20:35:32.436Z,100586.03
2022-10-03T20:39:37.330Z,100591.59
2022-10-03T20:44:05.620Z,100591.50
2022-10-03T20:48:14.235Z,100599.03
2022-10-03T20:52:21.064Z,100582.72
2022-10-03T20:56:28.543Z,100592.03
2022-10-03T21:00:31.144Z,100597.06
2022-10-03T21:04:40.167Z,100596.53
2022-10-03T21:08:42.024Z,100596.22
2022-10-03T21:13:00.226Z,100587.59
2022-10-03T21:17:02.058Z,100589.31
2022-10-03T21:21:53.146Z,100596.13
2022-10-03T21:26:01.675Z,100598.94
2022-10-03T21:30:18.029Z,100597.06
2022-10-03T21:34:49.949Z,100597.56
2022-10-03T21:38:51.789Z,100592.63
2022-10-03T21:43:53.013Z,100597.88
2022-10-03T21:48:28.033Z,100596.38
2022-10-03T21:53:22.129Z,100589.19
2022-10-03T21:57:36.244Z,100595.66
2022-10-03T22:01:53.592Z,100588.09
2022-10-03T22:06:25.479Z,100596.78
2022-10-03T22:10:29.568Z,100601.56
2022-10-03T22:15:20.486Z,100596.69
2022-10-03T22:19:50.465Z,100588.78
2022-10-03T22:24:02.132Z,100584.63
2022-10-03T22:28:27.579Z,100586.44
2022-10-03T22:32:43.490Z,100583.16
2022-10-03T22:36:45.376Z,100570.69
2022-10-03T22:40:47.430Z,100567.56
2022-10-03T22:44:50.971Z,100566.88
2022-10-03T22:48:59.329Z,100583.94
2022-10-03T22:53:01.631Z,100570.09
2022-10-03T22:57:10.596Z,100573.53
2022-10-03T23:01:12.373Z,100566.44
2022-10-03T23:05:53.332Z,100572.88
2022-10-03T23:10:13.633Z,100556.66
2022-10-03T23:14:19.897Z,100568.88
2022-10-03T23:19:03.984Z,100567.31
2022-10-03T23:23:16.542Z,100568.22
2022-10-03T23:27:53.719Z,100569.50
2022-10-03T23:32:09.985Z,100574.25
2022-10-03T23:36:18.151Z,100562.38
2022-10-03T23:40:38.485Z,100570.03
2022-10-03T23:45:06.323Z,100582.44
2022-10-03T23:49:08.135Z,100584.13
2022-10-03T23:53:29.061Z,100576.72
2022-10-03T23:57:35.231Z,100579.44
